createdAt,value
2023-05-11T00:01:29.716Z,20.17
2023-05-11T00:03:56.649Z,17.38
2023-05-11T00:06:23.514Z,17.98
2023-05-11T00:08:50.449Z,16.65
2023-05-11T00:11:18.658Z,15.48
2023-05-11T00:13:45.842Z,15.57
2023-05-11T00:16:12.798Z,15.95
2023-05-11T00:18:39.534Z,15.23
2023-05-11T00:21:06.237Z,14.43
2023-05-11T00:23:33.150Z,13.60
2023-05-11T00:25:59.756Z,14.25
2023-05-11T00:28:26.492Z,14.63
2023-05-11T00:30:57.549Z,14.10
2023-05-11T00:33:24.782Z,13.25
2023-05-11T00:35:51.812Z,14.75
2023-05-11T00:38:18.561Z,14.30
2023-05-11T00:40:45.470Z,12.88
2023-05-11T00:43:12.144Z,14.13
2023-05-11T00:45:39.969Z,15.52
2023-05-11T00:48:07.154Z,15.25
2023-05-11T00:50:35.901Z,15.73
2023-05-11T00:53:03.040Z,14.68
2023-05-11T00:55:30.582Z,14.93
2023-05-11T00:57:57.366Z,14.60
2023-05-11T01:00:23.986Z,15.02
2023-05-11T01:02:50.857Z,14.73
2023-05-11T01:05:17.988Z,13.40
2023-05-11T01:07:50.777Z,13.93
2023-05-11T01:10:33.058Z,13.57
2023-05-11T01:13:05.423Z,14.40
2023-05-11T01:15:48.081Z,12.52
2023-05-11T01:18:25.347Z,13.55
2023-05-11T01:20:59.941Z,15.15
2023-05-11T01:23:48.905Z,15.80
2023-05-11T01:26:37.072Z,16.35
2023-05-11T01:29:22.688Z,14.52
2023-05-11T01:31:53.410Z,14.68
2023-05-11T01:34:24.670Z,14.95
2023-05-11T01:36:56.134Z,14.73
2023-05-11T01:39:33.024Z,12.63
2023-05-11T01:42:10.385Z,14.82
2023-05-11T01:44:44.365Z,17.00
2023-05-11T01:47:13.524Z,14.52
2023-05-11T01:49:44.273Z,13.02
2023-05-11T01:52:11.516Z,12.70
2023-05-11T01:54:40.709Z,12.40
2023-05-11T01:57:09.546Z,13.93
2023-05-11T01:59:39.424Z,15.15
2023-05-11T02:02:08.548Z,16.10
2023-05-11T02:04:38.763Z,16.05
2023-05-11T02:07:08.194Z,14.38
2023-05-11T02:09:36.640Z,14.27
2023-05-11T02:12:05.449Z,15.63
2023-05-11T02:14:34.888Z,15.10
2023-05-11T02:17:03.890Z,18.08
2023-05-11T02:19:33.979Z,18.73
2023-05-11T02:22:02.190Z,18.20
2023-05-11T02:24:31.460Z,18.10
2023-05-11T02:26:59.118Z,16.65
2023-05-11T02:29:26.463Z,18.83
2023-05-11T02:32:03.420Z,18.17
2023-05-11T02:34:37.417Z,19.70
2023-05-11T02:37:09.919Z,18.15
2023-05-11T02:39:36.808Z,16.92
2023-05-11T02:42:22.104Z,17.25
2023-05-11T02:45:09.431Z,16.73
2023-05-11T02:47:56.765Z,18.63
2023-05-11T02:50:25.634Z,19.75
2023-05-11T02:52:56.943Z,18.95
2023-05-11T02:55:24.048Z,18.90
2023-05-11T02:57:50.740Z,18.60
2023-05-11T03:00:18.216Z,20.17
2023-05-11T03:02:45.353Z,18.35
2023-05-11T03:05:12.165Z,20.77
2023-05-11T03:07:38.788Z,19.95
2023-05-11T03:10:06.377Z,19.73
2023-05-11T03:12:34.662Z,20.10
2023-05-11T03:15:04.060Z,23.05
2023-05-11T03:17:31.508Z,21.42
2023-05-11T03:19:59.761Z,20.10
2023-05-11T03:22:27.785Z,18.48
2023-05-11T03:24:54.670Z,16.90
2023-05-11T03:27:22.138Z,16.85
2023-05-11T03:29:50.442Z,18.08
2023-05-11T03:32:17.246Z,16.77
2023-05-11T03:34:44.112Z,17.50
2023-05-11T03:37:13.290Z,17.45
2023-05-11T03:39:43.923Z,16.33
2023-05-11T03:42:13.728Z,18.52
2023-05-11T03:44:42.643Z,17.85
2023-05-11T03:47:10.406Z,20.45
2023-05-11T03:49:38.865Z,21.92
2023-05-11T03:52:07.168Z,21.55
2023-05-11T03:54:34.225Z,19.75
2023-05-11T03:57:01.269Z,18.80
2023-05-11T03:59:27.796Z,21.40
2023-05-11T04:01:55.162Z,21.13
2023-05-11T04:04:29.640Z,23.23
2023-05-11T04:11:50.365Z,21.98
2023-05-11T04:14:17.735Z,21.23
2023-05-11T04:16:45.070Z,17.88
2023-05-11T04:19:11.842Z,19.55
2023-05-11T04:21:39.259Z,17.90
2023-05-11T04:24:06.449Z,18.60
2023-05-11T04:26:33.893Z,16.52
2023-05-11T04:29:02.139Z,16.05
2023-05-11T04:31:30.741Z,15.88
2023-05-11T04:33:57.441Z,13.02
2023-05-11T04:36:24.236Z,13.85
2023-05-11T04:38:50.982Z,13.43
2023-05-11T04:41:17.648Z,14.02
2023-05-11T04:43:44.463Z,14.02
2023-05-11T04:46:12.844Z,15.85
2023-05-11T04:48:39.667Z,14.13
2023-05-11T04:51:06.496Z,15.25
2023-05-11T04:53:33.604Z,15.38
2023-05-11T04:56:00.418Z,14.88
2023-05-11T04:58:27.182Z,17.50
2023-05-11T05:00:54.003Z,16.48
2023-05-11T05:03:20.982Z,17.60
2023-05-11T05:05:48.001Z,16.55
2023-05-11T05:08:14.728Z,15.98
2023-05-11T05:10:41.482Z,15.52
2023-05-11T05:13:08.380Z,16.42
2023-05-11T05:15:35.182Z,15.05
2023-05-11T05:18:01.835Z,15.40
2023-05-11T05:20:28.513Z,15.68
2023-05-11T05:22:58.966Z,15.27
2023-05-11T05:25:25.598Z,16.40
2023-05-11T05:27:52.235Z,14.57
2023-05-11T05:30:19.070Z,16.35
2023-05-11T05:32:45.966Z,17.45
2023-05-11T05:35:13.188Z,16.33
2023-05-11T05:37:40.871Z,17.02
2023-05-11T05:40:09.062Z,17.35
2023-05-11T05:47:29.204Z,15.30
2023-05-11T05:49:55.833Z,16.65
2023-05-11T05:52:22.504Z,16.55
2023-05-11T05:54:49.083Z,17.85
2023-05-11T05:57:16.084Z,17.05
2023-05-11T05:59:42.717Z,15.98
2023-05-11T06:02:09.379Z,16.60
2023-05-11T06:04:36.237Z,16.63
2023-05-11T06:07:03.150Z,15.52
2023-05-11T06:09:29.779Z,14.65
2023-05-11T06:11:57.344Z,15.20
2023-05-11T06:14:25.016Z,13.68
2023-05-11T06:16:51.689Z,13.55
2023-05-11T06:19:18.360Z,13.60
2023-05-11T06:21:46.463Z,13.30
2023-05-11T06:24:13.216Z,13.20
2023-05-11T06:26:41.021Z,10.85
2023-05-11T06:29:08.102Z,12.88
2023-05-11T06:31:37.756Z,13.15
2023-05-11T06:34:04.590Z,13.15
2023-05-11T06:36:32.328Z,12.45
2023-05-11T06:38:59.121Z,13.27
2023-05-11T06:41:26.042Z,13.30
2023-05-11T06:43:52.722Z,12.15
2023-05-11T06:46:19.553Z,14.05
2023-05-11T06:48:46.292Z,14.52
2023-05-11T06:51:13.013Z,11.75
2023-05-11T06:53:39.822Z,10.52
2023-05-11T06:56:07.169Z,10.32
2023-05-11T06:58:34.753Z,10.70
2023-05-11T07:01:02.398Z,9.48
2023-05-11T07:05:55.991Z,10.30
2023-05-11T07:08:22.539Z,11.30
2023-05-11T07:10:49.282Z,11.88
2023-05-11T07:13:15.975Z,10.70
2023-05-11T07:15:42.612Z,11.38
2023-05-11T07:18:09.403Z,9.77
2023-05-11T07:20:38.069Z,13.10
2023-05-11T07:23:04.610Z,11.95
2023-05-11T07:25:31.831Z,11.27
2023-05-11T07:27:58.634Z,10.68
2023-05-11T07:30:26.157Z,12.85
2023-05-11T07:32:53.403Z,9.57
2023-05-11T07:35:22.110Z,9.93
2023-05-11T07:37:50.007Z,9.85
2023-05-11T07:40:16.719Z,10.07
2023-05-11T07:42:43.876Z,10.57
2023-05-11T07:45:10.716Z,8.93
2023-05-11T07:47:37.337Z,8.15
2023-05-11T07:50:04.448Z,9.45
2023-05-11T07:52:31.070Z,8.32
2023-05-11T07:54:57.670Z,8.18
2023-05-11T07:57:25.377Z,9.55
2023-05-11T07:59:53.006Z,10.90
2023-05-11T08:02:19.675Z,7.85
2023-05-11T08:04:46.340Z,7.78
2023-05-11T08:07:13.046Z,8.82
2023-05-11T08:09:39.724Z,8.52
2023-05-11T08:12:06.438Z,8.25
2023-05-11T08:14:33.195Z,8.90
2023-05-11T08:16:59.920Z,7.95
2023-05-11T08:19:26.848Z,6.88
2023-05-11T08:21:53.646Z,6.78
2023-05-11T08:24:20.368Z,7.25
2023-05-11T08:26:47.289Z,6.32
2023-05-11T08:29:14.575Z,6.90
2023-05-11T08:31:41.343Z,7.03
2023-05-11T08:34:18.478Z,6.50
2023-05-11T08:36:46.882Z,5.88
2023-05-11T08:39:13.591Z,5.25
2023-05-11T08:41:40.268Z,5.20
2023-05-11T08:44:07.977Z,5.57
2023-05-11T08:46:40.115Z,5.72
2023-05-11T08:49:10.405Z,7.32
2023-05-11T08:51:37.245Z,5.80
2023-05-11T08:54:04.456Z,5.20
2023-05-11T08:56:32.011Z,5.43
2023-05-11T08:58:58.940Z,5.90
2023-05-11T09:01:30.670Z,5.90
2023-05-11T09:03:58.676Z,6.05
2023-05-11T09:06:27.427Z,6.63
2023-05-11T09:08:54.984Z,6.55
2023-05-11T09:11:23.209Z,7.88
2023-05-11T09:13:50.389Z,7.90
2023-05-11T09:16:32.942Z,6.47
2023-05-11T09:19:03.535Z,6.85
2023-05-11T09:21:31.147Z,6.35
2023-05-11T09:24:01.420Z,5.93
2023-05-11T09:26:29.858Z,6.25
2023-05-11T09:29:02.881Z,8.73
2023-05-11T09:34:17.694Z,7.90
2023-05-11T09:36:47.652Z,9.93
2023-05-11T09:39:16.704Z,7.13
2023-05-11T09:41:43.688Z,5.65
2023-05-11T09:44:12.899Z,6.22
2023-05-11T09:46:41.460Z,6.95
2023-05-11T09:49:08.816Z,8.57
2023-05-11T09:51:38.260Z,10.13
2023-05-11T09:54:19.696Z,11.02
2023-05-11T09:56:52.568Z,11.25
2023-05-11T09:59:37.866Z,9.45
2023-05-11T10:02:21.527Z,10.35
2023-05-11T10:04:51.102Z,9.95
2023-05-11T10:07:28.380Z,10.27
2023-05-11T10:09:58.224Z,10.05
2023-05-11T10:12:26.558Z,10.77
2023-05-11T10:14:58.822Z,11.63
2023-05-11T10:17:25.879Z,9.13
2023-05-11T10:19:56.105Z,12.40
2023-05-11T10:22:26.198Z,12.23
2023-05-11T10:24:56.759Z,12.75
2023-05-11T10:27:25.019Z,12.43
2023-05-11T10:29:51.959Z,13.73
2023-05-11T10:32:19.777Z,13.15
2023-05-11T10:34:48.798Z,13.20
2023-05-11T10:37:16.496Z,13.65
2023-05-11T10:39:46.121Z,13.10
2023-05-11T10:42:39.830Z,11.02
2023-05-11T10:45:43.597Z,12.38
2023-05-11T10:48:50.934Z,11.30
2023-05-11T10:51:51.808Z,12.18
2023-05-11T10:54:40.955Z,12.48
2023-05-11T10:57:36.290Z,11.93
2023-05-11T11:00:47.899Z,10.48
2023-05-11T11:03:16.399Z,11.45
2023-05-11T11:05:44.093Z,9.65
2023-05-11T11:08:11.731Z,11.57
2023-05-11T11:10:49.403Z,13.75
2023-05-11T11:13:18.548Z,11.05
2023-05-11T11:15:55.500Z,10.25
2023-05-11T11:18:24.446Z,9.30
2023-05-11T11:20:53.504Z,8.43
2023-05-11T11:23:55.574Z,8.48
2023-05-11T11:26:47.407Z,8.70
2023-05-11T11:29:14.147Z,8.15
2023-05-11T11:31:41.899Z,7.07
2023-05-11T11:37:03.908Z,7.07
2023-05-11T11:40:09.534Z,6.82
2023-05-11T11:45:33.315Z,6.93
2023-05-11T11:48:24.027Z,7.28
2023-05-11T11:51:02.980Z,6.25
2023-05-11T11:53:40.840Z,5.30
2023-05-11T11:56:28.530Z,4.78
2023-05-11T11:59:05.073Z,4.20
2023-05-11T12:01:42.811Z,4.22
2023-05-11T12:04:39.354Z,3.33
2023-05-11T12:07:09.215Z,6.50
2023-05-11T12:09:37.336Z,7.70
2023-05-11T12:12:06.290Z,7.82
2023-05-11T12:14:34.114Z,7.32
2023-05-11T12:17:05.936Z,7.38
2023-05-11T12:19:32.842Z,6.95
2023-05-11T12:21:59.605Z,7.22
2023-05-11T12:24:26.772Z,3.28
2023-05-11T12:26:56.766Z,4.05
2023-05-11T12:29:23.701Z,3.33
2023-05-11T12:31:50.316Z,2.85
2023-05-11T12:34:18.807Z,2.70
2023-05-11T12:36:46.981Z,2.75
2023-05-11T12:39:21.683Z,1.95
2023-05-11T12:41:50.081Z,3.47
2023-05-11T12:44:18.191Z,2.55
2023-05-11T12:46:48.713Z,3.13
2023-05-11T12:49:34.232Z,2.80
2023-05-11T12:52:03.233Z,3.15
2023-05-11T12:54:32.805Z,2.53
2023-05-11T12:57:01.122Z,2.05
2023-05-11T12:59:34.511Z,3.30
2023-05-11T13:02:18.076Z,2.92
2023-05-11T13:04:45.954Z,1.80
2023-05-11T13:07:14.299Z,1.95
2023-05-11T13:09:41.761Z,2.47
2023-05-11T13:12:18.473Z,3.10
2023-05-11T13:14:48.910Z,2.38
2023-05-11T13:17:35.210Z,1.95
2023-05-11T13:20:27.038Z,2.38
2023-05-11T13:23:11.589Z,1.98
2023-05-11T13:25:48.861Z,2.10
2023-05-11T13:28:17.057Z,2.30
2023-05-11T13:30:44.920Z,2.28
2023-05-11T13:33:15.270Z,2.53
2023-05-11T13:35:42.740Z,2.00
2023-05-11T13:38:10.807Z,2.50
2023-05-11T13:40:38.324Z,1.55
2023-05-11T13:43:05.091Z,1.75
2023-05-11T13:45:33.238Z,1.98
2023-05-11T13:48:00.415Z,2.05
2023-05-11T13:50:27.080Z,2.83
2023-05-11T13:52:54.314Z,2.95
2023-05-11T13:55:21.674Z,1.83
2023-05-11T13:57:50.047Z,2.72
2023-05-11T14:00:17.395Z,2.15
2023-05-11T14:02:45.251Z,2.88
2023-05-11T14:05:12.034Z,3.55
2023-05-11T14:07:46.394Z,2.42
2023-05-11T14:10:14.482Z,3.42
2023-05-11T14:12:41.775Z,2.83
2023-05-11T14:15:10.044Z,2.28
2023-05-11T14:17:37.233Z,3.15
2023-05-11T14:20:05.221Z,2.42
2023-05-11T14:22:33.210Z,2.63
2023-05-11T14:25:00.058Z,3.05
2023-05-11T14:27:26.898Z,2.50
2023-05-11T14:29:54.294Z,2.15
2023-05-11T14:32:21.902Z,2.08
2023-05-11T14:34:50.988Z,2.75
2023-05-11T14:37:18.688Z,1.88
2023-05-11T14:39:45.552Z,2.13
2023-05-11T14:42:12.361Z,2.20
2023-05-11T14:44:39.260Z,2.20
2023-05-11T14:47:06.399Z,2.80
2023-05-11T14:49:33.057Z,2.40
2023-05-11T14:51:59.858Z,3.47
2023-05-11T14:54:26.654Z,3.08
2023-05-11T14:56:55.455Z,2.72
2023-05-11T14:59:26.139Z,2.85
2023-05-11T15:01:55.158Z,2.47
2023-05-11T15:04:22.585Z,3.20
2023-05-11T15:06:49.315Z,2.83
2023-05-11T15:09:17.566Z,2.45
2023-05-11T15:11:44.235Z,3.08
2023-05-11T15:14:11.544Z,2.08
2023-05-11T15:16:38.543Z,1.73
2023-05-11T15:19:07.121Z,2.50
2023-05-11T15:21:37.297Z,2.30
2023-05-11T15:24:04.591Z,1.70
2023-05-11T15:26:31.327Z,2.60
2023-05-11T15:29:00.490Z,2.50
2023-05-11T15:31:30.270Z,2.75
2023-05-11T15:33:57.736Z,3.20
2023-05-11T15:36:24.541Z,2.85
2023-05-11T15:38:51.439Z,2.95
2023-05-11T15:41:20.508Z,1.67
2023-05-11T15:43:49.753Z,2.28
2023-05-11T15:46:16.675Z,2.92
2023-05-11T15:48:43.613Z,1.77
2023-05-11T15:51:15.087Z,2.38
2023-05-11T15:53:41.954Z,2.67
2023-05-11T15:56:10.979Z,3.20
2023-05-11T15:58:38.663Z,2.20
2023-05-11T16:01:06.366Z,3.20
2023-05-11T16:03:33.515Z,3.90
2023-05-11T16:06:00.387Z,3.67
2023-05-11T16:08:29.311Z,3.65
2023-05-11T16:10:56.736Z,3.25
2023-05-11T16:13:24.559Z,2.55
2023-05-11T16:15:52.291Z,2.85
2023-05-11T16:18:19.968Z,3.47
2023-05-11T16:23:14.466Z,2.55
2023-05-11T16:25:42.637Z,3.40
2023-05-11T16:28:09.444Z,3.60
2023-05-11T16:30:37.459Z,3.80
2023-05-11T16:33:05.641Z,3.22
2023-05-11T16:35:36.426Z,3.08
2023-05-11T16:38:05.382Z,3.00
2023-05-11T16:40:32.337Z,3.92
2023-05-11T16:43:02.381Z,2.45
2023-05-11T16:45:35.185Z,2.90
2023-05-11T16:48:02.045Z,3.15
2023-05-11T16:50:28.723Z,2.53
2023-05-11T16:52:59.797Z,2.80
2023-05-11T16:55:28.169Z,2.80
2023-05-11T16:57:55.163Z,3.60
2023-05-11T17:00:23.201Z,3.10
2023-05-11T17:02:50.691Z,3.38
2023-05-11T17:05:20.605Z,2.78
2023-05-11T17:07:49.137Z,2.63
2023-05-11T17:10:16.443Z,2.88
2023-05-11T17:12:44.720Z,3.25
2023-05-11T17:15:12.037Z,2.92
2023-05-11T17:17:39.284Z,3.58
2023-05-11T17:20:10.270Z,3.33
2023-05-11T17:22:37.905Z,2.67
2023-05-11T17:25:07.397Z,3.13
2023-05-11T17:27:37.558Z,3.05
2023-05-11T17:30:05.937Z,3.33
2023-05-11T17:32:33.414Z,3.17
2023-05-11T17:35:04.104Z,2.42
2023-05-11T17:37:32.430Z,3.13
2023-05-11T17:40:01.656Z,3.22
2023-05-11T17:42:28.546Z,2.67
2023-05-11T17:44:56.100Z,2.58
2023-05-11T17:47:22.805Z,3.28
2023-05-11T17:49:49.649Z,1.85
2023-05-11T17:52:17.130Z,3.25
2023-05-11T17:54:44.015Z,3.83
2023-05-11T17:57:13.242Z,2.03
2023-05-11T17:59:41.497Z,2.67
2023-05-11T18:02:09.476Z,3.60
2023-05-11T18:04:36.206Z,2.65
2023-05-11T18:07:04.603Z,3.00
2023-05-11T18:09:31.282Z,2.35
2023-05-11T18:11:57.895Z,2.40
2023-05-11T18:14:25.080Z,2.58
2023-05-11T18:16:53.079Z,2.28
2023-05-11T18:21:46.712Z,2.70
2023-05-11T18:24:15.232Z,2.33
2023-05-11T18:26:42.324Z,2.10
2023-05-11T18:29:10.114Z,2.88
2023-05-11T18:31:38.666Z,3.35
2023-05-11T18:34:06.529Z,2.65
2023-05-11T18:36:35.216Z,2.85
2023-05-11T18:39:04.076Z,2.85
2023-05-11T18:41:30.791Z,2.83
2023-05-11T18:43:59.056Z,3.10
2023-05-11T18:46:27.502Z,3.10
2023-05-11T18:48:54.571Z,2.70
2023-05-11T18:51:25.685Z,2.80
2023-05-11T18:53:55.307Z,3.15
2023-05-11T18:56:22.535Z,2.58
2023-05-11T18:58:50.478Z,2.35
2023-05-11T19:01:18.782Z,2.22
2023-05-11T19:03:46.363Z,2.78
2023-05-11T19:06:14.704Z,4.03
2023-05-11T19:08:42.344Z,2.92
2023-05-11T19:11:10.579Z,2.67
2023-05-11T19:16:04.969Z,2.55
2023-05-11T19:18:35.710Z,2.10
2023-05-11T19:21:04.847Z,2.50
2023-05-11T19:23:35.580Z,2.90
2023-05-11T19:26:06.497Z,2.47
2023-05-11T19:28:35.575Z,2.30
2023-05-11T19:31:04.911Z,3.22
2023-05-11T19:33:32.149Z,3.33
2023-05-11T19:35:59.734Z,4.13
2023-05-11T19:38:26.773Z,2.38
2023-05-11T19:40:53.801Z,3.13
2023-05-11T19:43:21.760Z,2.80
2023-05-11T19:45:49.886Z,2.92
2023-05-11T19:48:19.450Z,2.97
2023-05-11T19:50:47.702Z,2.80
2023-05-11T19:55:44.084Z,2.88
2023-05-11T19:58:12.147Z,2.97
2023-05-11T20:00:41.381Z,3.53
2023-05-11T20:03:09.441Z,2.30
2023-05-11T20:05:36.760Z,3.17
2023-05-11T20:08:05.866Z,3.03
2023-05-11T20:10:34.846Z,2.80
2023-05-11T20:13:07.094Z,3.03
2023-05-11T20:15:36.899Z,3.33
2023-05-11T20:18:07.927Z,3.05
2023-05-11T20:20:34.689Z,2.78
2023-05-11T20:23:02.418Z,3.60
2023-05-11T20:25:30.162Z,2.85
2023-05-11T20:27:56.901Z,2.88
2023-05-11T20:30:23.851Z,3.40
2023-05-11T20:35:20.250Z,4.00
2023-05-11T20:37:48.584Z,3.78
2023-05-11T20:42:42.153Z,3.85
2023-05-11T20:45:11.329Z,3.80
2023-05-11T20:47:38.097Z,2.42
2023-05-11T20:50:09.554Z,2.95
2023-05-11T20:52:39.446Z,3.30
2023-05-11T20:55:11.621Z,3.40
2023-05-11T20:57:38.866Z,4.15
2023-05-11T21:00:08.585Z,3.17
2023-05-11T21:02:35.416Z,3.10
2023-05-11T21:05:02.529Z,3.97
2023-05-11T21:07:29.998Z,3.72
2023-05-11T21:09:56.732Z,4.15
2023-05-11T21:12:23.458Z,4.18
2023-05-11T21:14:50.008Z,3.55
2023-05-11T21:17:16.749Z,3.75
2023-05-11T21:19:43.492Z,2.97
2023-05-11T21:22:10.093Z,3.40
2023-05-11T21:24:37.769Z,3.65
2023-05-11T21:27:04.898Z,4.10
2023-05-11T21:29:31.602Z,4.47
2023-05-11T21:31:58.255Z,3.63
2023-05-11T21:34:25.899Z,3.42
2023-05-11T21:36:52.627Z,3.58
2023-05-11T21:39:19.202Z,4.32
2023-05-11T21:41:45.946Z,4.03
2023-05-11T21:44:12.555Z,3.83
2023-05-11T21:46:39.231Z,3.28
2023-05-11T21:49:06.172Z,3.58
2023-05-11T21:51:33.549Z,4.20
2023-05-11T21:54:00.238Z,4.25
2023-05-11T21:56:26.948Z,4.53
2023-05-11T21:58:53.478Z,4.68
2023-05-11T22:01:21.113Z,3.95
2023-05-11T22:03:47.824Z,4.22
2023-05-11T22:06:14.517Z,3.58
2023-05-11T22:08:41.095Z,3.92
2023-05-11T22:11:07.919Z,4.05
2023-05-11T22:13:34.604Z,4.03
2023-05-11T22:16:01.406Z,3.45
2023-05-11T22:18:28.026Z,3.80
2023-05-11T22:20:54.910Z,3.95
2023-05-11T22:23:21.676Z,3.47
2023-05-11T22:25:48.260Z,3.55
2023-05-11T22:28:14.900Z,3.35
2023-05-11T22:30:41.605Z,4.00
2023-05-11T22:33:08.169Z,4.05
2023-05-11T22:35:34.892Z,4.57
2023-05-11T22:38:01.993Z,4.40
2023-05-11T22:40:28.638Z,3.67
2023-05-11T22:42:55.326Z,3.30
2023-05-11T22:45:22.033Z,4.15
2023-05-11T22:47:48.855Z,3.78
2023-05-11T22:50:15.721Z,3.22
2023-05-11T22:52:42.366Z,3.92
2023-05-11T22:55:09.643Z,3.53
2023-05-11T22:57:36.190Z,3.88
2023-05-11T23:00:04.005Z,4.50
2023-05-11T23:02:30.806Z,3.85
2023-05-11T23:04:57.589Z,3.67
2023-05-11T23:07:24.227Z,3.88
2023-05-11T23:09:52.882Z,4.03
2023-05-11T23:12:19.758Z,4.53
2023-05-11T23:14:47.437Z,4.40
2023-05-11T23:17:14.062Z,3.45
2023-05-11T23:19:40.816Z,3.63
2023-05-11T23:22:07.620Z,4.32
2023-05-11T23:24:34.711Z,4.25
2023-05-11T23:27:01.505Z,3.53
2023-05-11T23:29:28.176Z,4.10
2023-05-11T23:31:55.968Z,4.28
2023-05-11T23:34:22.595Z,4.18
2023-05-11T23:36:49.320Z,3.53
2023-05-11T23:39:15.955Z,4.72
2023-05-11T23:41:42.674Z,3.45
2023-05-11T23:44:09.373Z,3.97
2023-05-11T23:46:36.306Z,3.95
2023-05-11T23:49:03.573Z,3.83
2023-05-11T23:51:30.569Z,4.22
2023-05-11T23:53:57.238Z,3.92
2023-05-11T23:56:23.981Z,4.47
2023-05-11T23:58:50.708Z,4.25
